Main page
METAR-TAF:

METAR-TAF

Airports :

Stokmarknes Airport. Skagen

Stokmarknes, Norway

latitude: 68-35N, longitude: 015-01E, elevation: 0 m

Current weather observation

The report was made 2 hours and 52 minutes ago, at 18:50 UTC
Wind 6 kt from the East/Northeast
Temperature 2°C
Humidity 93%
Pressure 966 hPa
Visibility 10 km or more
Few clouds at a height of 700 ft
Scattered clouds at a height of 2500 ft
Broken clouds at a height of 4000 ft

METAR: ENSK 171850Z 06006KT 9999 FEW007 SCT025 BKN040 02/01 Q0966

Time: 22:42 (21:42 UTC)


TAF: missing

Weather observations and forecasts of more than 4000 airports (METAR and TAF reports).

The available stations are represented by yellow and red dots on the map.

Hover mouse over dot to see the name of the station.

Then click to see weather observations and forecasts.

To change the map : click on the green buttons with a black cross to zoom in, on the green button with a dash to zoom out, or on the green arrows for adjacent maps.


METAR-TAF: